This is the latest recevied weather packets stored in our database for station/object KQ7A. If no packets are shown the sender has not sent any weather packets the latest 10 day(s).
| Time | Temp. | Humidity | Pressure | Rain* | Wind** | Luminosity | Snow |
|---|---|---|---|---|---|---|---|
| 1777733835 | 10° C | 64% | 1017.5 hPa | 0 mm | - | 110 W/m² | - |
| 1777733531 | 10° C | 64% | 1017.5 hPa | 0 mm | - | 112 W/m² | - |
| 1777733228 | 10° C | 62% | 1017.6 hPa | 0 mm | - | 113 W/m² | - |
| 1777732925 | 10° C | 57% | 1017.6 hPa | 0 mm | - | 109 W/m² | - |
| 1777732621 | 9.44° C | 60% | 1017.3 hPa | 0 mm | - | 102 W/m² | - |
| 1777732319 | 8.89° C | 60% | 1017.6 hPa | 0 mm | - | 96 W/m² | - |
| 1777732015 | 8.89° C | 61% | 1017.4 hPa | 0 mm | - | 89 W/m² | - |
| 1777731712 | 8.33° C | 62% | 1017.4 hPa | 0 mm | - | 90 W/m² | - |
| 1777731409 | 7.78° C | 70% | 1017.3 hPa | 0 mm | - | 81 W/m² | - |
| 1777731108 | 7.78° C | 69% | 1017.4 hPa | 0 mm | - | 79 W/m² | - |
| 1777730806 | 7.22° C | 71% | 1017.3 hPa | 0 mm | - | 70 W/m² | - |
| 1777730502 | 7.22° C | 71% | 1017.3 hPa | 0 mm | - | 58 W/m² | - |
| 1777730198 | 7.22° C | 69% | 1017.3 hPa | 0 mm | - | 47 W/m² | - |
| 1777729895 | 6.67° C | 70% | 1017.1 hPa | 0 mm | - | 42 W/m² | - |
| 1777729591 | 6.67° C | 69% | 1017.3 hPa | 0 mm | - | 40 W/m² | - |
| 1777729288 | 6.11° C | 72% | 1017.3 hPa | 0 mm | - | 34 W/m² | - |
| 1777728985 | 6.11° C | 67% | 1017.1 hPa | 0 mm | - | 26 W/m² | - |
| 1777728681 | 6.11° C | 68% | 1017.4 hPa | 0 mm | - | 19 W/m² | - |
| 1777728378 | 6.11° C | 69% | 1017.3 hPa | 0 mm | - | 13 W/m² | - |
| 1777728076 | 6.11° C | 66% | 1016.9 hPa | 0 mm | - | 9 W/m² | - |
| 1777727772 | 6.11° C | 68% | 1017.1 hPa | 0 mm | - | 6 W/m² | - |
| 1777727470 | 6.11° C | 67% | 1016.9 hPa | 0 mm | - | 5 W/m² | - |
| 1777727167 | 6.11° C | 67% | 1016.9 hPa | 0 mm | - | 2 W/m² | - |
| 1777726865 | 6.67° C | 65% | 1016.8 hPa | 0 mm | - | 0 W/m² | - |
| 1777726560 | 7.78° C | 60% | 1016.7 hPa | 0 mm | - | 0 W/m² | - |
* Rain latest hour (hover to see other rain measurements)
** Current wind speed in m/s (hover to see current wind gust speed)